sensor_id;sensor_type;location;lat;lon;timestamp;pressure;altitude;pressure_sealevel;temperature;humidity
69411;BME280;56604;48.652;9.194;2022-08-11T00:00:07;96762.94;;;19.12;43.69
69411;BME280;56604;48.652;9.194;2022-08-11T00:02:42;96767.28;;;19.08;43.73
69411;BME280;56604;48.652;9.194;2022-08-11T00:05:16;96764.34;;;18.91;44.17
69411;BME280;56604;48.652;9.194;2022-08-11T00:07:48;96777.81;;;18.99;44.15
69411;BME280;56604;48.652;9.194;2022-08-11T00:10:16;96768.53;;;18.97;44.03
69411;BME280;56604;48.652;9.194;2022-08-11T00:12:43;96771.63;;;18.85;44.54
69411;BME280;56604;48.652;9.194;2022-08-11T00:15:10;96766.13;;;18.95;44.46
69411;BME280;56604;48.652;9.194;2022-08-11T00:17:36;96767.53;;;18.93;44.21
69411;BME280;56604;48.652;9.194;2022-08-11T00:20:08;96759.03;;;18.91;44.72
69411;BME280;56604;48.652;9.194;2022-08-11T00:22:37;96763.72;;;18.80;44.61
69411;BME280;56604;48.652;9.194;2022-08-11T00:25:12;96762.13;;;18.79;44.88
69411;BME280;56604;48.652;9.194;2022-08-11T00:27:39;96763.72;;;18.80;45.01
69411;BME280;56604;48.652;9.194;2022-08-11T00:30:06;96770.41;;;18.77;45.03
69411;BME280;56604;48.652;9.194;2022-08-11T00:32:33;96768.88;;;18.71;45.12
69411;BME280;56604;48.652;9.194;2022-08-11T00:35:00;96768.94;;;18.66;45.12
69411;BME280;56604;48.652;9.194;2022-08-11T00:37:26;96762.59;;;18.62;45.52
69411;BME280;56604;48.652;9.194;2022-08-11T00:39:53;96768.41;;;18.64;45.19
69411;BME280;56604;48.652;9.194;2022-08-11T00:45:38;96775.97;;;18.57;45.74
69411;BME280;56604;48.652;9.194;2022-08-11T00:48:26;96769.09;;;18.56;45.45
69411;BME280;56604;48.652;9.194;2022-08-11T00:59:32;96762.16;;;18.55;45.54
69411;BME280;56604;48.652;9.194;2022-08-11T01:02:16;96767.38;;;18.41;45.69
69411;BME280;56604;48.652;9.194;2022-08-11T01:19:32;96761.63;;;18.34;46.31
69411;BME280;56604;48.652;9.194;2022-08-11T01:22:31;96764.00;;;18.35;46.23
69411;BME280;56604;48.652;9.194;2022-08-11T01:48:25;96747.13;;;18.21;46.94
69411;BME280;56604;48.652;9.194;2022-08-11T01:53:56;96742.97;;;18.15;47.13
69411;BME280;56604;48.652;9.194;2022-08-11T02:01:38;96736.28;;;18.17;46.74
69411;BME280;56604;48.652;9.194;2022-08-11T02:06:52;96739.78;;;18.13;47.21
69411;BME280;56604;48.652;9.194;2022-08-11T02:11:55;96737.63;;;18.15;47.27
69411;BME280;56604;48.652;9.194;2022-08-11T02:17:20;96735.97;;;18.00;48.05
69411;BME280;56604;48.652;9.194;2022-08-11T02:20:03;96734.22;;;17.90;48.19
69411;BME280;56604;48.652;9.194;2022-08-11T02:22:55;96733.13;;;17.91;48.00
69411;BME280;56604;48.652;9.194;2022-08-11T02:25:57;96728.59;;;17.92;47.99
69411;BME280;56604;48.652;9.194;2022-08-11T02:37:09;96721.41;;;17.92;48.52
69411;BME280;56604;48.652;9.194;2022-08-11T02:47:42;96721.50;;;17.87;48.58
69411;BME280;56604;48.652;9.194;2022-08-11T02:50:34;96721.25;;;17.84;48.81
69411;BME280;56604;48.652;9.194;2022-08-11T02:58:02;96726.09;;;17.76;49.29
69411;BME280;56604;48.652;9.194;2022-08-11T03:00:56;96723.75;;;17.70;49.08
69411;BME280;56604;48.652;9.194;2022-08-11T03:03:37;96717.59;;;17.74;49.39
69411;BME280;56604;48.652;9.194;2022-08-11T03:12:00;96726.00;;;17.58;49.45
69411;BME280;56604;48.652;9.194;2022-08-11T03:14:57;96725.84;;;17.49;50.03
69411;BME280;56604;48.652;9.194;2022-08-11T03:18:14;96735.31;;;17.31;50.30
69411;BME280;56604;48.652;9.194;2022-08-11T03:26:20;96731.56;;;17.32;50.51
69411;BME280;56604;48.652;9.194;2022-08-11T03:29:05;96733.72;;;17.30;50.45
69411;BME280;56604;48.652;9.194;2022-08-11T03:31:38;96741.69;;;17.30;50.41
69411;BME280;56604;48.652;9.194;2022-08-11T03:34:14;96735.59;;;17.29;50.37
69411;BME280;56604;48.652;9.194;2022-08-11T03:36:59;96736.38;;;17.30;50.17
69411;BME280;56604;48.652;9.194;2022-08-11T03:39:56;96734.53;;;17.30;50.34
69411;BME280;56604;48.652;9.194;2022-08-11T03:45:08;96744.13;;;17.26;50.54
69411;BME280;56604;48.652;9.194;2022-08-11T03:47:44;96744.41;;;17.25;50.41
69411;BME280;56604;48.652;9.194;2022-08-11T03:50:46;96737.00;;;17.22;50.50
69411;BME280;56604;48.652;9.194;2022-08-11T03:59:11;96744.91;;;17.27;50.58
69411;BME280;56604;48.652;9.194;2022-08-11T04:01:42;96752.38;;;17.25;50.65
69411;BME280;56604;48.652;9.194;2022-08-11T04:21:25;96745.84;;;17.41;50.63
69411;BME280;56604;48.652;9.194;2022-08-11T04:24:26;96741.44;;;17.56;50.35
69411;BME280;56604;48.652;9.194;2022-08-11T04:29:45;96742.53;;;17.84;49.68
69411;BME280;56604;48.652;9.194;2022-08-11T04:41:20;96730.38;;;18.82;47.81
69411;BME280;56604;48.652;9.194;2022-08-11T04:46:48;96734.75;;;19.25;46.07
69411;BME280;56604;48.652;9.194;2022-08-11T04:49:39;96737.44;;;19.71;45.58
69411;BME280;56604;48.652;9.194;2022-08-11T05:08:16;96749.50;;;21.95;40.53
69411;BME280;56604;48.652;9.194;2022-08-11T05:12:56;96746.00;;;22.26;39.42
69411;BME280;56604;48.652;9.194;2022-08-11T05:15:53;96747.75;;;22.39;39.44
69411;BME280;56604;48.652;9.194;2022-08-11T05:18:48;96740.56;;;23.18;38.34
69411;BME280;56604;48.652;9.194;2022-08-11T05:21:33;96741.50;;;23.05;38.66
69411;BME280;56604;48.652;9.194;2022-08-11T05:24:29;96742.53;;;24.03;36.53
69411;BME280;56604;48.652;9.194;2022-08-11T05:27:14;96743.53;;;23.34;38.23
69411;BME280;56604;48.652;9.194;2022-08-11T05:30:03;96756.34;;;24.22;36.52
69411;BME280;56604;48.652;9.194;2022-08-11T05:33:07;96751.06;;;24.05;36.94
69411;BME280;56604;48.652;9.194;2022-08-11T05:36:07;96749.38;;;24.21;37.17
69411;BME280;56604;48.652;9.194;2022-08-11T05:38:36;96756.06;;;24.15;37.30
69411;BME280;56604;48.652;9.194;2022-08-11T05:41:27;96745.22;;;24.62;36.52
69411;BME280;56604;48.652;9.194;2022-08-11T05:44:17;96752.19;;;24.34;35.93
69411;BME280;56604;48.652;9.194;2022-08-11T05:47:02;96754.28;;;24.28;36.65
69411;BME280;56604;48.652;9.194;2022-08-11T05:49:49;96754.03;;;24.42;36.77
69411;BME280;56604;48.652;9.194;2022-08-11T05:52:35;96742.72;;;24.28;36.80
69411;BME280;56604;48.652;9.194;2022-08-11T05:55:19;96753.84;;;24.17;36.58
69411;BME280;56604;48.652;9.194;2022-08-11T05:58:06;96751.38;;;24.84;35.57
69411;BME280;56604;48.652;9.194;2022-08-11T06:00:41;96751.13;;;23.23;38.62
69411;BME280;56604;48.652;9.194;2022-08-11T06:03:08;96752.38;;;24.79;36.60
69411;BME280;56604;48.652;9.194;2022-08-11T06:05:39;96746.19;;;25.21;35.97
69411;BME280;56604;48.652;9.194;2022-08-11T06:08:09;96736.25;;;25.91;34.47
69411;BME280;56604;48.652;9.194;2022-08-11T06:10:41;96743.22;;;25.47;35.89
69411;BME280;56604;48.652;9.194;2022-08-11T06:13:10;96743.41;;;25.75;35.55
69411;BME280;56604;48.652;9.194;2022-08-11T06:15:47;96748.69;;;25.71;35.97
69411;BME280;56604;48.652;9.194;2022-08-11T06:18:15;96743.34;;;25.96;35.37
69411;BME280;56604;48.652;9.194;2022-08-11T06:23:13;96749.69;;;25.79;34.55
69411;BME280;56604;48.652;9.194;2022-08-11T06:25:43;96748.19;;;25.57;35.59
69411;BME280;56604;48.652;9.194;2022-08-11T06:28:10;96750.19;;;26.18;35.24
69411;BME280;56604;48.652;9.194;2022-08-11T06:30:40;96748.97;;;26.28;35.40
69411;BME280;56604;48.652;9.194;2022-08-11T06:33:20;96756.34;;;25.36;36.86
69411;BME280;56604;48.652;9.194;2022-08-11T06:41:19;96744.13;;;25.96;35.96
69411;BME280;56604;48.652;9.194;2022-08-11T06:44:14;96746.81;;;26.09;35.32
69411;BME280;56604;48.652;9.194;2022-08-11T06:46:43;96753.44;;;26.11;35.11
69411;BME280;56604;48.652;9.194;2022-08-11T06:49:12;96753.56;;;25.90;35.39
69411;BME280;56604;48.652;9.194;2022-08-11T06:52:00;96752.41;;;25.79;35.96
69411;BME280;56604;48.652;9.194;2022-08-11T06:54:33;96748.28;;;25.36;36.30
69411;BME280;56604;48.652;9.194;2022-08-11T06:57:00;96743.38;;;25.50;35.94
69411;BME280;56604;48.652;9.194;2022-08-11T07:00:05;96742.34;;;26.13;36.25
69411;BME280;56604;48.652;9.194;2022-08-11T07:03:06;96748.84;;;25.99;36.13
69411;BME280;56604;48.652;9.194;2022-08-11T07:14:54;96754.56;;;25.40;37.06
69411;BME280;56604;48.652;9.194;2022-08-11T07:17:50;96757.75;;;25.00;37.34
69411;BME280;56604;48.652;9.194;2022-08-11T07:20:37;96760.16;;;24.93;37.85
69411;BME280;56604;48.652;9.194;2022-08-11T07:23:22;96762.28;;;24.37;39.66
69411;BME280;56604;48.652;9.194;2022-08-11T07:26:07;96749.09;;;24.95;37.02
69411;BME280;56604;48.652;9.194;2022-08-11T07:28:53;96745.25;;;25.95;36.12
69411;BME280;56604;48.652;9.194;2022-08-11T07:31:38;96746.19;;;25.21;36.48
69411;BME280;56604;48.652;9.194;2022-08-11T07:36:56;96750.38;;;25.09;36.38
69411;BME280;56604;48.652;9.194;2022-08-11T07:39:32;96748.50;;;25.43;36.79
69411;BME280;56604;48.652;9.194;2022-08-11T07:41:59;96739.63;;;25.09;37.51
69411;BME280;56604;48.652;9.194;2022-08-11T07:44:29;96740.75;;;25.87;35.69
69411;BME280;56604;48.652;9.194;2022-08-11T07:46:56;96734.88;;;25.73;36.79
69411;BME280;56604;48.652;9.194;2022-08-11T07:49:43;96740.34;;;25.64;36.90
69411;BME280;56604;48.652;9.194;2022-08-11T07:52:31;96734.72;;;25.90;35.69
69411;BME280;56604;48.652;9.194;2022-08-11T07:55:00;96735.16;;;26.05;36.48
69411;BME280;56604;48.652;9.194;2022-08-11T07:57:27;96736.94;;;25.88;35.83
69411;BME280;56604;48.652;9.194;2022-08-11T08:00:13;96732.31;;;26.01;36.02
69411;BME280;56604;48.652;9.194;2022-08-11T08:02:58;96746.03;;;25.84;36.14
69411;BME280;56604;48.652;9.194;2022-08-11T08:05:45;96737.72;;;25.43;37.26
69411;BME280;56604;48.652;9.194;2022-08-11T08:08:30;96744.19;;;25.30;37.66
69411;BME280;56604;48.652;9.194;2022-08-11T08:11:14;96747.34;;;25.32;36.23
69411;BME280;56604;48.652;9.194;2022-08-11T08:13:59;96739.09;;;25.49;35.67
69411;BME280;56604;48.652;9.194;2022-08-11T08:16:44;96743.19;;;25.68;35.40
69411;BME280;56604;48.652;9.194;2022-08-11T08:19:30;96747.88;;;25.04;36.08
69411;BME280;56604;48.652;9.194;2022-08-11T08:21:56;96745.91;;;25.34;35.50
69411;BME280;56604;48.652;9.194;2022-08-11T08:24:23;96742.75;;;25.11;36.06
69411;BME280;56604;48.652;9.194;2022-08-11T08:26:49;96737.84;;;25.47;35.24
69411;BME280;56604;48.652;9.194;2022-08-11T08:29:30;96733.28;;;25.72;34.76
69411;BME280;56604;48.652;9.194;2022-08-11T08:32:15;96741.09;;;26.22;34.38
69411;BME280;56604;48.652;9.194;2022-08-11T08:34:41;96735.84;;;26.01;33.83
69411;BME280;56604;48.652;9.194;2022-08-11T08:37:07;96754.00;;;25.92;34.28
69411;BME280;56604;48.652;9.194;2022-08-11T08:39:33;96748.69;;;25.71;34.50
69411;BME280;56604;48.652;9.194;2022-08-11T08:42:06;96741.22;;;26.01;34.20
69411;BME280;56604;48.652;9.194;2022-08-11T08:44:34;96737.94;;;26.20;34.28
69411;BME280;56604;48.652;9.194;2022-08-11T08:47:03;96740.66;;;26.08;34.19
69411;BME280;56604;48.652;9.194;2022-08-11T08:49:32;96741.19;;;26.38;35.00
69411;BME280;56604;48.652;9.194;2022-08-11T08:52:01;96738.97;;;25.91;34.34
69411;BME280;56604;48.652;9.194;2022-08-11T08:54:32;96745.34;;;26.48;33.58
69411;BME280;56604;48.652;9.194;2022-08-11T08:57:02;96747.25;;;26.35;33.32
69411;BME280;56604;48.652;9.194;2022-08-11T08:59:31;96730.34;;;27.03;33.74
69411;BME280;56604;48.652;9.194;2022-08-11T09:02:00;96746.75;;;26.82;33.27
69411;BME280;56604;48.652;9.194;2022-08-11T09:04:27;96728.94;;;26.94;32.93
69411;BME280;56604;48.652;9.194;2022-08-11T09:06:55;96731.03;;;27.00;34.05
69411;BME280;56604;48.652;9.194;2022-08-11T09:09:21;96744.09;;;26.45;32.62
69411;BME280;56604;48.652;9.194;2022-08-11T09:11:48;96741.19;;;26.51;33.12
69411;BME280;56604;48.652;9.194;2022-08-11T09:14:31;96743.44;;;26.24;33.93
69411;BME280;56604;48.652;9.194;2022-08-11T09:17:19;96736.81;;;26.86;32.50
69411;BME280;56604;48.652;9.194;2022-08-11T09:19:46;96744.91;;;26.86;32.62
69411;BME280;56604;48.652;9.194;2022-08-11T09:22:12;96746.38;;;26.56;31.82
69411;BME280;56604;48.652;9.194;2022-08-11T09:25:01;96733.28;;;26.70;31.54
69411;BME280;56604;48.652;9.194;2022-08-11T09:27:46;96736.81;;;26.58;30.80
69411;BME280;56604;48.652;9.194;2022-08-11T09:30:11;96742.22;;;26.58;31.27
69411;BME280;56604;48.652;9.194;2022-08-11T09:32:38;96753.28;;;26.69;31.00
69411;BME280;56604;48.652;9.194;2022-08-11T09:35:05;96749.59;;;26.49;30.95
69411;BME280;56604;48.652;9.194;2022-08-11T09:37:31;96741.06;;;26.47;31.27
69411;BME280;56604;48.652;9.194;2022-08-11T09:40:16;96744.28;;;26.77;31.24
69411;BME280;56604;48.652;9.194;2022-08-11T09:43:05;96745.22;;;26.32;29.81
69411;BME280;56604;48.652;9.194;2022-08-11T09:45:52;96745.22;;;26.57;30.77
69411;BME280;56604;48.652;9.194;2022-08-11T09:48:24;96736.22;;;26.65;30.59
69411;BME280;56604;48.652;9.194;2022-08-11T09:50:51;96748.75;;;26.85;29.76
69411;BME280;56604;48.652;9.194;2022-08-11T09:53:19;96740.94;;;26.68;29.70
69411;BME280;56604;48.652;9.194;2022-08-11T09:55:46;96746.34;;;26.68;30.70
69411;BME280;56604;48.652;9.194;2022-08-11T09:58:15;96728.00;;;26.49;30.40
69411;BME280;56604;48.652;9.194;2022-08-11T10:00:43;96734.84;;;26.71;30.25
69411;BME280;56604;48.652;9.194;2022-08-11T10:03:21;96738.03;;;26.61;29.11
69411;BME280;56604;48.652;9.194;2022-08-11T10:05:50;96732.84;;;26.68;29.82
69411;BME280;56604;48.652;9.194;2022-08-11T10:08:38;96732.22;;;26.10;30.26
69411;BME280;56604;48.652;9.194;2022-08-11T10:11:05;96737.81;;;26.41;30.22
69411;BME280;56604;48.652;9.194;2022-08-11T10:13:34;96734.19;;;26.50;30.52
69411;BME280;56604;48.652;9.194;2022-08-11T10:16:27;96725.47;;;26.93;29.72
69411;BME280;56604;48.652;9.194;2022-08-11T10:18:55;96723.97;;;26.67;29.13
69411;BME280;56604;48.652;9.194;2022-08-11T10:21:36;96731.38;;;26.71;28.91
69411;BME280;56604;48.652;9.194;2022-08-11T10:24:04;96733.84;;;26.63;29.29
69411;BME280;56604;48.652;9.194;2022-08-11T10:26:49;96721.78;;;26.85;28.64
69411;BME280;56604;48.652;9.194;2022-08-11T10:29:36;96718.88;;;27.19;28.90
69411;BME280;56604;48.652;9.194;2022-08-11T10:32:27;96718.25;;;26.57;28.96
69411;BME280;56604;48.652;9.194;2022-08-11T10:35:14;96702.09;;;26.85;28.83
69411;BME280;56604;48.652;9.194;2022-08-11T10:37:42;96707.69;;;26.92;28.92
69411;BME280;56604;48.652;9.194;2022-08-11T10:40:13;96707.19;;;26.74;29.62
69411;BME280;56604;48.652;9.194;2022-08-11T10:42:40;96711.06;;;26.48;29.96
69411;BME280;56604;48.652;9.194;2022-08-11T10:45:24;96701.03;;;27.02;28.39
69411;BME280;56604;48.652;9.194;2022-08-11T10:48:08;96694.66;;;27.22;29.67
69411;BME280;56604;48.652;9.194;2022-08-11T10:50:35;96707.91;;;27.27;29.61
69411;BME280;56604;48.652;9.194;2022-08-11T10:53:19;96704.91;;;26.88;29.64
69411;BME280;56604;48.652;9.194;2022-08-11T10:56:04;96705.25;;;26.87;29.08
69411;BME280;56604;48.652;9.194;2022-08-11T10:58:50;96690.88;;;26.83;28.45
69411;BME280;56604;48.652;9.194;2022-08-11T11:01:30;96687.44;;;26.98;29.29
69411;BME280;56604;48.652;9.194;2022-08-11T11:04:12;96685.78;;;27.38;28.19
69411;BME280;56604;48.652;9.194;2022-08-11T11:12:10;96683.50;;;26.96;28.66
69411;BME280;56604;48.652;9.194;2022-08-11T11:14:55;96676.19;;;26.68;27.85
69411;BME280;56604;48.652;9.194;2022-08-11T11:17:44;96671.25;;;26.70;28.37
69411;BME280;56604;48.652;9.194;2022-08-11T11:22:56;96675.31;;;27.20;29.38
69411;BME280;56604;48.652;9.194;2022-08-11T11:36:53;96662.84;;;26.59;28.95
69411;BME280;56604;48.652;9.194;2022-08-11T11:39:22;96659.41;;;27.03;29.29
69411;BME280;56604;48.652;9.194;2022-08-11T11:41:53;96654.78;;;27.03;28.45
69411;BME280;56604;48.652;9.194;2022-08-11T11:44:20;96649.44;;;27.19;29.35
69411;BME280;56604;48.652;9.194;2022-08-11T11:46:47;96660.25;;;26.91;27.88
69411;BME280;56604;48.652;9.194;2022-08-11T11:49:19;96648.59;;;26.87;28.51
69411;BME280;56604;48.652;9.194;2022-08-11T11:51:47;96648.75;;;26.78;28.21
69411;BME280;56604;48.652;9.194;2022-08-11T11:54:14;96650.25;;;26.63;27.85
69411;BME280;56604;48.652;9.194;2022-08-11T11:56:40;96648.22;;;26.88;27.80
69411;BME280;56604;48.652;9.194;2022-08-11T11:59:07;96646.47;;;26.80;27.63
69411;BME280;56604;48.652;9.194;2022-08-11T12:01:53;96638.59;;;26.75;28.50
69411;BME280;56604;48.652;9.194;2022-08-11T12:04:19;96644.66;;;26.84;27.45
69411;BME280;56604;48.652;9.194;2022-08-11T12:06:45;96646.66;;;27.16;28.15
69411;BME280;56604;48.652;9.194;2022-08-11T12:09:11;96635.97;;;26.91;27.90
69411;BME280;56604;48.652;9.194;2022-08-11T12:11:43;96632.66;;;26.98;27.75
69411;BME280;56604;48.652;9.194;2022-08-11T12:14:28;96640.56;;;26.90;28.07
69411;BME280;56604;48.652;9.194;2022-08-11T12:16:55;96642.19;;;26.79;28.04
69411;BME280;56604;48.652;9.194;2022-08-11T12:19:23;96649.53;;;26.95;27.64
69411;BME280;56604;48.652;9.194;2022-08-11T12:21:50;96637.25;;;26.81;27.41
69411;BME280;56604;48.652;9.194;2022-08-11T12:24:35;96631.03;;;27.09;28.94
69411;BME280;56604;48.652;9.194;2022-08-11T12:27:21;96625.06;;;27.16;27.18
69411;BME280;56604;48.652;9.194;2022-08-11T12:29:51;96636.41;;;27.09;26.68
69411;BME280;56604;48.652;9.194;2022-08-11T12:32:19;96635.03;;;27.15;27.55
69411;BME280;56604;48.652;9.194;2022-08-11T12:34:45;96630.59;;;27.07;26.69
69411;BME280;56604;48.652;9.194;2022-08-11T12:37:12;96635.69;;;27.24;27.23
69411;BME280;56604;48.652;9.194;2022-08-11T12:39:45;96635.19;;;27.06;27.92
69411;BME280;56604;48.652;9.194;2022-08-11T12:42:32;96625.25;;;26.95;26.55
69411;BME280;56604;48.652;9.194;2022-08-11T12:45:18;96615.72;;;27.13;28.31
69411;BME280;56604;48.652;9.194;2022-08-11T12:48:04;96619.41;;;27.36;28.07
69411;BME280;56604;48.652;9.194;2022-08-11T12:50:53;96610.63;;;27.24;26.67
69411;BME280;56604;48.652;9.194;2022-08-11T12:53:44;96606.84;;;27.28;26.53
69411;BME280;56604;48.652;9.194;2022-08-11T12:56:12;96604.41;;;27.23;27.80
69411;BME280;56604;48.652;9.194;2022-08-11T12:58:56;96603.28;;;27.40;27.59
69411;BME280;56604;48.652;9.194;2022-08-11T13:01:42;96606.34;;;27.39;26.58
69411;BME280;56604;48.652;9.194;2022-08-11T13:04:27;96590.91;;;27.23;27.14
69411;BME280;56604;48.652;9.194;2022-08-11T13:07:13;96603.72;;;27.58;28.17
69411;BME280;56604;48.652;9.194;2022-08-11T13:09:40;96595.00;;;27.49;26.82
69411;BME280;56604;48.652;9.194;2022-08-11T13:12:07;96593.81;;;27.30;26.38
69411;BME280;56604;48.652;9.194;2022-08-11T13:14:52;96591.00;;;27.43;27.39
69411;BME280;56604;48.652;9.194;2022-08-11T13:17:17;96588.56;;;27.38;26.44
69411;BME280;56604;48.652;9.194;2022-08-11T13:19:47;96583.31;;;27.13;26.40
69411;BME280;56604;48.652;9.194;2022-08-11T13:22:16;96581.94;;;27.19;28.07
69411;BME280;56604;48.652;9.194;2022-08-11T13:24:43;96580.97;;;27.43;27.28
69411;BME280;56604;48.652;9.194;2022-08-11T13:27:09;96590.13;;;27.39;27.79
69411;BME280;56604;48.652;9.194;2022-08-11T13:29:37;96583.50;;;27.20;27.54
69411;BME280;56604;48.652;9.194;2022-08-11T13:32:05;96585.63;;;27.27;27.32
69411;BME280;56604;48.652;9.194;2022-08-11T13:34:31;96575.84;;;27.22;26.33
69411;BME280;56604;48.652;9.194;2022-08-11T13:37:00;96574.00;;;27.10;26.77
69411;BME280;56604;48.652;9.194;2022-08-11T13:39:29;96574.53;;;27.32;27.51
69411;BME280;56604;48.652;9.194;2022-08-11T13:41:56;96569.38;;;27.43;27.58
69411;BME280;56604;48.652;9.194;2022-08-11T13:44:24;96580.13;;;27.39;27.07
69411;BME280;56604;48.652;9.194;2022-08-11T13:46:54;96587.63;;;27.30;26.94
69411;BME280;56604;48.652;9.194;2022-08-11T13:49:21;96570.53;;;27.26;27.07
69411;BME280;56604;48.652;9.194;2022-08-11T13:51:47;96578.28;;;27.27;27.05
69411;BME280;56604;48.652;9.194;2022-08-11T13:54:18;96566.19;;;27.21;27.46
69411;BME280;56604;48.652;9.194;2022-08-11T13:56:47;96563.13;;;27.07;26.41
69411;BME280;56604;48.652;9.194;2022-08-11T13:59:18;96560.44;;;27.39;27.05
69411;BME280;56604;48.652;9.194;2022-08-11T14:01:58;96557.47;;;27.28;26.61
69411;BME280;56604;48.652;9.194;2022-08-11T14:04:31;96557.88;;;27.14;27.14
69411;BME280;56604;48.652;9.194;2022-08-11T14:07:04;96556.50;;;27.20;27.01
69411;BME280;56604;48.652;9.194;2022-08-11T14:09:35;96538.75;;;27.19;27.39
69411;BME280;56604;48.652;9.194;2022-08-11T14:12:05;96545.97;;;27.31;26.86
69411;BME280;56604;48.652;9.194;2022-08-11T14:15:21;96544.50;;;27.33;26.86
69411;BME280;56604;48.652;9.194;2022-08-11T14:20:41;96538.91;;;27.26;26.32
69411;BME280;56604;48.652;9.194;2022-08-11T14:23:41;96539.88;;;27.34;26.37
69411;BME280;56604;48.652;9.194;2022-08-11T14:26:11;96527.41;;;27.29;26.89
69411;BME280;56604;48.652;9.194;2022-08-11T14:28:48;96535.56;;;27.49;26.17
69411;BME280;56604;48.652;9.194;2022-08-11T14:31:17;96529.38;;;27.64;26.63
69411;BME280;56604;48.652;9.194;2022-08-11T14:33:44;96540.31;;;27.71;26.26
69411;BME280;56604;48.652;9.194;2022-08-11T14:36:10;96541.16;;;27.56;26.72
69411;BME280;56604;48.652;9.194;2022-08-11T14:38:36;96532.59;;;27.54;26.97
69411;BME280;56604;48.652;9.194;2022-08-11T14:41:04;96531.00;;;27.33;26.81
69411;BME280;56604;48.652;9.194;2022-08-11T14:43:49;96537.47;;;27.64;27.37
69411;BME280;56604;48.652;9.194;2022-08-11T14:46:33;96534.03;;;27.48;27.21
69411;BME280;56604;48.652;9.194;2022-08-11T14:49:18;96529.56;;;27.55;26.84
69411;BME280;56604;48.652;9.194;2022-08-11T14:51:45;96532.88;;;27.49;27.05
69411;BME280;56604;48.652;9.194;2022-08-11T14:54:12;96527.47;;;27.49;26.39
69411;BME280;56604;48.652;9.194;2022-08-11T14:56:57;96517.56;;;27.37;26.93
69411;BME280;56604;48.652;9.194;2022-08-11T14:59:24;96516.09;;;27.40;27.20
69411;BME280;56604;48.652;9.194;2022-08-11T15:01:50;96518.19;;;27.66;27.35
69411;BME280;56604;48.652;9.194;2022-08-11T15:04:34;96516.84;;;27.56;26.12
69411;BME280;56604;48.652;9.194;2022-08-11T15:07:00;96511.66;;;27.31;26.11
69411;BME280;56604;48.652;9.194;2022-08-11T15:09:26;96514.66;;;27.46;26.10
69411;BME280;56604;48.652;9.194;2022-08-11T15:11:51;96506.69;;;27.33;26.94
69411;BME280;56604;48.652;9.194;2022-08-11T15:14:49;96504.84;;;27.38;27.44
69411;BME280;56604;48.652;9.194;2022-08-11T15:17:34;96495.19;;;27.36;26.46
69411;BME280;56604;48.652;9.194;2022-08-11T15:20:07;96498.31;;;27.39;26.08
69411;BME280;56604;48.652;9.194;2022-08-11T15:22:52;96502.00;;;27.30;26.58
69411;BME280;56604;48.652;9.194;2022-08-11T15:25:37;96486.50;;;27.27;26.78
69411;BME280;56604;48.652;9.194;2022-08-11T15:28:05;96487.09;;;27.36;26.21
69411;BME280;56604;48.652;9.194;2022-08-11T15:30:55;96489.97;;;27.28;26.48
69411;BME280;56604;48.652;9.194;2022-08-11T15:33:43;96489.72;;;27.33;26.58
69411;BME280;56604;48.652;9.194;2022-08-11T15:36:29;96482.22;;;27.26;26.81
69411;BME280;56604;48.652;9.194;2022-08-11T15:39:30;96473.75;;;27.12;27.52
69411;BME280;56604;48.652;9.194;2022-08-11T15:42:09;96475.97;;;27.22;26.97
69411;BME280;56604;48.652;9.194;2022-08-11T15:44:58;96483.63;;;27.20;26.71
69411;BME280;56604;48.652;9.194;2022-08-11T15:47:55;96469.50;;;27.11;26.83
69411;BME280;56604;48.652;9.194;2022-08-11T15:50:25;96468.50;;;27.16;27.10
69411;BME280;56604;48.652;9.194;2022-08-11T15:53:07;96471.25;;;27.03;27.42
69411;BME280;56604;48.652;9.194;2022-08-11T15:55:34;96473.06;;;27.15;26.74
69411;BME280;56604;48.652;9.194;2022-08-11T15:58:03;96468.34;;;27.12;26.24
69411;BME280;56604;48.652;9.194;2022-08-11T16:00:50;96464.66;;;27.17;26.69
69411;BME280;56604;48.652;9.194;2022-08-11T16:03:51;96455.31;;;27.14;27.23
69411;BME280;56604;48.652;9.194;2022-08-11T16:06:43;96457.56;;;27.12;26.62
69411;BME280;56604;48.652;9.194;2022-08-11T16:09:11;96467.66;;;27.15;27.04
69411;BME280;56604;48.652;9.194;2022-08-11T16:11:38;96459.94;;;26.98;26.87
69411;BME280;56604;48.652;9.194;2022-08-11T16:14:05;96460.38;;;27.00;27.17
69411;BME280;56604;48.652;9.194;2022-08-11T16:16:51;96467.69;;;26.99;27.92
69411;BME280;56604;48.652;9.194;2022-08-11T16:19:18;96463.25;;;27.07;26.94
69411;BME280;56604;48.652;9.194;2022-08-11T16:21:44;96460.44;;;27.03;26.81
69411;BME280;56604;48.652;9.194;2022-08-11T16:24:16;96462.47;;;26.90;27.15
69411;BME280;56604;48.652;9.194;2022-08-11T16:26:44;96448.53;;;26.88;27.65
69411;BME280;56604;48.652;9.194;2022-08-11T16:29:11;96447.25;;;26.98;27.39
69411;BME280;56604;48.652;9.194;2022-08-11T16:31:37;96460.22;;;26.92;27.45
69411;BME280;56604;48.652;9.194;2022-08-11T16:34:05;96454.38;;;26.90;27.61
69411;BME280;56604;48.652;9.194;2022-08-11T16:36:54;96453.25;;;26.91;27.42
69411;BME280;56604;48.652;9.194;2022-08-11T16:39:39;96449.69;;;26.87;27.48
69411;BME280;56604;48.652;9.194;2022-08-11T16:42:05;96450.09;;;26.89;27.27
69411;BME280;56604;48.652;9.194;2022-08-11T16:44:51;96446.81;;;26.80;27.39
69411;BME280;56604;48.652;9.194;2022-08-11T16:47:37;96446.47;;;26.66;27.46
69411;BME280;56604;48.652;9.194;2022-08-11T16:50:04;96443.69;;;26.78;28.17
69411;BME280;56604;48.652;9.194;2022-08-11T16:52:30;96446.47;;;26.66;28.13
69411;BME280;56604;48.652;9.194;2022-08-11T16:54:56;96442.47;;;26.60;27.77
69411;BME280;56604;48.652;9.194;2022-08-11T16:57:23;96445.94;;;26.60;27.77
69411;BME280;56604;48.652;9.194;2022-08-11T17:00:11;96452.66;;;26.51;27.68
69411;BME280;56604;48.652;9.194;2022-08-11T17:02:51;96453.66;;;26.46;28.07
69411;BME280;56604;48.652;9.194;2022-08-11T17:05:37;96446.13;;;26.52;27.55
69411;BME280;56604;48.652;9.194;2022-08-11T17:08:29;96447.25;;;26.51;28.19